Time;durP1;ratioP1;P1;durP2;ratioP2;P2;SDS_P1;SDS_P2;PMS_P1;PMS_P2;Temp;Humidity;BMP_temperature;BMP_pressure;BME280_temperature;BME280_humidity;BME280_pressure;Samples;Min_cycle;Max_cycle;Signal;HPM_P1;HPM_P2
2023/12/30 00:00:51;;;;;;;;;;;;;;;;;;6285319;28;20316;-76
2023/12/30 00:03:52;;;;;;;;;;;;;;;;;;6293997;28;19920;-76
2023/12/30 00:06:52;;;;;;;;;;;;;;;;;;6287870;28;19924;-76
2023/12/30 00:09:52;;;;;;;;;;;;;;;;;;6292826;28;19919;-77
2023/12/30 00:12:52;;;;;;;;;;;;;;;;;;6291588;28;19916;-76
2023/12/30 00:15:52;;;;;;;;;;;;;;;;;;6292740;28;19916;-76
2023/12/30 00:18:52;;;;;;;;;;;;;;;;;;6297971;28;19909;-76
2023/12/30 00:21:52;;;;;;;;;;;;;;;;;;6296014;28;19913;-77
2023/12/30 00:24:52;;;;;;;;;;;;;;;;;;6287087;28;19916;-76
2023/12/30 00:27:53;;;;;;;;;;;;;;;;;;6287268;28;19935;-76
2023/12/30 00:30:53;;;;;;;;;;;;;;;;;;6283123;28;20264;-76
2023/12/30 00:33:53;;;;;;;;;;;;;;;;;;6300796;28;19912;-76
2023/12/30 00:36:53;;;;;;;;;;;;;;;;;;6297718;28;19919;-76
2023/12/30 00:39:53;;;;;;;;;;;;;;;;;;6296934;28;19958;-76
2023/12/30 00:42:53;;;;;;;;;;;;;;;;;;6292683;28;20280;-77
2023/12/30 00:45:54;;;;;;;;;;;;;;;;;;6302301;28;19973;-77
2023/12/30 00:48:54;;;;;;;;;;;;;;;;;;6306708;28;19913;-77
2023/12/30 00:51:54;;;;;;;;;;;;;;;;;;6289253;28;19919;-76
2023/12/30 00:54:54;;;;;;;;;;;;;;;;;;6298527;28;19957;-76
2023/12/30 00:57:54;;;;;;;;;;;;;;;;;;6300019;28;19916;-75
2023/12/30 01:00:54;;;;;;;;;;;;;;;;;;6296324;28;19925;-76
2023/12/30 01:03:54;;;;;;;;;;;;;;;;;;6290990;28;19920;-75
2023/12/30 01:06:55;;;;;;;;;;;;;;;;;;6299251;28;20011;-76
2023/12/30 01:09:55;;;;;;;;;;;;;;;;;;6293559;28;20007;-76
2023/12/30 01:12:55;;;;;;;;;;;;;;;;;;6299309;28;19974;-76
2023/12/30 01:15:55;;;;;;;;;;;;;;;;;;6283350;28;20328;-77
2023/12/30 01:18:55;;;;;;;;;;;;;;;;;;6299013;28;19913;-76
2023/12/30 01:21:55;;;;;;;;;;;;;;;;;;6296859;28;20265;-77
2023/12/30 01:24:55;;;;;;;;;;;;;;;;;;6291828;28;19965;-76
2023/12/30 01:27:56;;;;;;;;;;;;;;;;;;6294559;28;19955;-76
2023/12/30 01:30:56;;;;;;;;;;;;;;;;;;6291836;28;19952;-77
2023/12/30 01:33:56;;;;;;;;;;;;;;;;;;6294539;28;19912;-77
2023/12/30 01:36:56;;;;;;;;;;;;;;;;;;6292452;28;19912;-77
2023/12/30 01:39:56;;;;;;;;;;;;;;;;;;6293204;28;19913;-76
2023/12/30 01:42:56;;;;;;;;;;;;;;;;;;6294576;28;19919;-76
2023/12/30 01:45:57;;;;;;;;;;;;;;;;;;6294448;28;19920;-76
2023/12/30 01:48:57;;;;;;;;;;;;;;;;;;6293904;28;20436;-77
2023/12/30 01:51:57;;;;;;;;;;;;;;;;;;6289671;28;19967;-76
2023/12/30 01:54:57;;;;;;;;;;;;;;;;;;6297487;28;19912;-76
2023/12/30 01:57:57;;;;;;;;;;;;;;;;;;6294579;28;19912;-77
2023/12/30 02:00:57;;;;;;;;;;;;;;;;;;6293364;28;19927;-76
2023/12/30 02:03:57;;;;;;;;;;;;;;;;;;6298427;28;20360;-76
2023/12/30 02:06:58;;;;;;;;;;;;;;;;;;6267991;28;19921;-76
2023/12/30 02:09:58;;;;;;;;;;;;;;;;;;6266705;28;20373;-76
2023/12/30 02:12:58;;;;;;;;;;;;;;;;;;6285108;28;19936;-76
2023/12/30 02:15:58;;;;;;;;;;;;;;;;;;6288232;28;19913;-77
2023/12/30 02:18:58;;;;;;;;;;;;;;;;;;6288663;28;19951;-76
2023/12/30 02:21:58;;;;;;;;;;;;;;;;;;6295567;28;20282;-77
2023/12/30 02:24:59;;;;;;;;;;;;;;;;;;6279803;28;19959;-76
2023/12/30 02:28:00;;;;;;;;;;;;;;;;;;6294421;28;19916;-76
2023/12/30 02:31:00;;;;;;;;;;;;;;;;;;6282526;28;19943;-76
2023/12/30 02:34:00;;;;;;;;;;;;;;;;;;6284880;28;19920;-76
2023/12/30 02:37:00;;;;;;;;;;;;;;;;;;6291238;28;20296;-76
2023/12/30 02:40:00;;;;;;;;;;;;;;;;;;6293587;28;19959;-76
2023/12/30 02:43:01;;;;;;;;;;;;;;;;;;6299526;28;19955;-76
2023/12/30 02:46:01;;;;;;;;;;;;;;;;;;6290040;28;19920;-76
2023/12/30 02:49:03;;;;;;;;;;;;;;;;;;6295659;28;20256;-75
2023/12/30 02:52:03;;;;;;;;;;;;;;;;;;6295907;28;19923;-76
2023/12/30 02:55:04;;;;;;;;;;;;;;;;;;6303177;28;19956;-75
2023/12/30 02:58:05;;;;;;;;;;;;;;;;;;6295893;28;19916;-76
2023/12/30 03:01:05;;;;;;;;;;;;;;;;;;6288203;28;19971;-76
2023/12/30 03:04:05;;;;;;;;;;;;;;;;;;6293869;28;19939;-76
2023/12/30 03:07:05;;;;;;;;;;;;;;;;;;6301199;28;19927;-76
2023/12/30 03:10:05;;;;;;;;;;;;;;;;;;6296584;28;19909;-76
2023/12/30 03:13:05;;;;;;;;;;;;;;;;;;6279641;28;19920;-75
2023/12/30 03:16:05;;;;;;;;;;;;;;;;;;6293219;28;19912;-75
2023/12/30 03:19:05;;;;;;;;;;;;;;;;;;6292709;28;19913;-76
2023/12/30 03:22:06;;;;;;;;;;;;;;;;;;6292111;28;19916;-76
2023/12/30 03:25:06;;;;;;;;;;;;;;;;;;6296365;28;19913;-76
2023/12/30 03:28:06;;;;;;;;;;;;;;;;;;6271460;28;20376;-76
2023/12/30 03:31:07;;;;;;;;;;;;;;;;;;6292535;28;19956;-76
2023/12/30 03:34:07;;;;;;;;;;;;;;;;;;6266092;28;19963;-76
2023/12/30 03:37:07;;;;;;;;;;;;;;;;;;6273576;28;20361;-77
2023/12/30 03:40:07;;;;;;;;;;;;;;;;;;6290995;28;20289;-77
2023/12/30 03:43:07;;;;;;;;;;;;;;;;;;6288667;28;20272;-77
2023/12/30 03:46:07;;;;;;;;;;;;;;;;;;6287907;28;19943;-77
2023/12/30 03:49:07;;;;;;;;;;;;;;;;;;6292049;28;19912;-76
2023/12/30 03:52:08;;;;;;;;;;;;;;;;;;6292484;28;19919;-77
2023/12/30 03:55:08;;;;;;;;;;;;;;;;;;6296023;28;19920;-77
2023/12/30 03:58:08;;;;;;;;;;;;;;;;;;6296461;28;19917;-77
2023/12/30 04:01:08;;;;;;;;;;;;;;;;;;6293274;28;19924;-77
2023/12/30 04:04:08;;;;;;;;;;;;;;;;;;6298735;28;19912;-77
2023/12/30 04:07:08;;;;;;;;;;;;;;;;;;6290696;28;19928;-77
2023/12/30 04:10:08;;;;;;;;;;;;;;;;;;6298357;28;19921;-77
2023/12/30 04:13:09;;;;;;;;;;;;;;;;;;6282722;28;20301;-77
2023/12/30 04:16:09;;;;;;;;;;;;;;;;;;6281485;28;19920;-76
2023/12/30 04:19:09;;;;;;;;;;;;;;;;;;6291596;28;19994;-76
2023/12/30 04:22:09;;;;;;;;;;;;;;;;;;6292853;28;19943;-77
2023/12/30 04:25:10;;;;;;;;;;;;;;;;;;6300305;28;19966;-77
2023/12/30 04:28:10;;;;;;;;;;;;;;;;;;6299844;28;19912;-77
2023/12/30 04:31:10;;;;;;;;;;;;;;;;;;6295087;28;19939;-77
2023/12/30 04:34:10;;;;;;;;;;;;;;;;;;6291308;28;19971;-77
2023/12/30 04:37:10;;;;;;;;;;;;;;;;;;6294102;28;19931;-76
2023/12/30 04:40:10;;;;;;;;;;;;;;;;;;6294295;28;20370;-77
2023/12/30 04:43:11;;;;;;;;;;;;;;;;;;6296190;28;19979;-77
2023/12/30 04:46:11;;;;;;;;;;;;;;;;;;6293173;28;20350;-76
2023/12/30 04:49:13;;;;;;;;;;;;;;;;;;6285307;28;19912;-76
2023/12/30 04:52:13;;;;;;;;;;;;;;;;;;6293740;28;19954;-76
2023/12/30 04:55:13;;;;;;;;;;;;;;;;;;6295308;28;19912;-76
2023/12/30 04:58:13;;;;;;;;;;;;;;;;;;6294069;28;20269;-76
2023/12/30 05:01:14;;;;;;;;;;;;;;;;;;6262001;28;19920;-76
2023/12/30 05:04:14;;;;;;;;;;;;;;;;;;6292405;28;20276;-75
2023/12/30 05:07:14;;;;;;;;;;;;;;;;;;6292567;28;19920;-76
2023/12/30 05:10:14;;;;;;;;;;;;;;;;;;6303859;28;19919;-75
2023/12/30 05:13:14;;;;;;;;;;;;;;;;;;6294863;28;19920;-77
2023/12/30 05:16:14;;;;;;;;;;;;;;;;;;6276618;28;19912;-76
2023/12/30 05:19:14;;;;;;;;;;;;;;;;;;6290496;28;20365;-78
2023/12/30 05:22:15;;;;;;;;;;;;;;;;;;6285317;28;19999;-76
2023/12/30 05:25:15;;;;;;;;;;;;;;;;;;6296189;28;19995;-77
2023/12/30 05:28:15;;;;;;;;;;;;;;;;;;6294381;28;20043;-76
2023/12/30 05:31:15;;;;;;;;;;;;;;;;;;6285208;28;19912;-76
2023/12/30 05:34:15;;;;;;;;;;;;;;;;;;6288203;28;19968;-77
2023/12/30 05:37:15;;;;;;;;;;;;;;;;;;6275984;28;20424;-77
2023/12/30 05:40:15;;;;;;;;;;;;;;;;;;6277852;28;19916;-76
2023/12/30 05:43:15;;;;;;;;;;;;;;;;;;6297637;28;19909;-77
2023/12/30 05:46:16;;;;;;;;;;;;;;;;;;6286209;28;19920;-77
2023/12/30 05:49:16;;;;;;;;;;;;;;;;;;6287898;28;19916;-77
2023/12/30 05:52:16;;;;;;;;;;;;;;;;;;6286668;28;19920;-76
2023/12/30 05:55:16;;;;;;;;;;;;;;;;;;6287056;28;19912;-77
2023/12/30 05:58:16;;;;;;;;;;;;;;;;;;6293074;28;19913;-77
2023/12/30 06:01:17;;;;;;;;;;;;;;;;;;6291645;28;19943;-77
2023/12/30 06:04:17;;;;;;;;;;;;;;;;;;6294991;28;19912;-77
2023/12/30 06:07:17;;;;;;;;;;;;;;;;;;6290588;28;19920;-77
2023/12/30 06:10:17;;;;;;;;;;;;;;;;;;6284574;28;19912;-77
2023/12/30 06:13:17;;;;;;;;;;;;;;;;;;6291913;28;19919;-77
2023/12/30 06:16:18;;;;;;;;;;;;;;;;;;6289780;28;19912;-77
2023/12/30 06:19:18;;;;;;;;;;;;;;;;;;6293815;28;19920;-77
2023/12/30 06:22:18;;;;;;;;;;;;;;;;;;6285165;28;19917;-77
2023/12/30 06:25:18;;;;;;;;;;;;;;;;;;6293111;28;19913;-77
2023/12/30 06:28:18;;;;;;;;;;;;;;;;;;6296708;28;19962;-77
2023/12/30 06:31:18;;;;;;;;;;;;;;;;;;6292498;28;19920;-77
2023/12/30 06:34:18;;;;;;;;;;;;;;;;;;6290592;28;19912;-77
2023/12/30 06:37:19;;;;;;;;;;;;;;;;;;6290087;28;20420;-77
2023/12/30 06:40:19;;;;;;;;;;;;;;;;;;6290009;28;20348;-77
2023/12/30 06:43:19;;;;;;;;;;;;;;;;;;6263093;28;20357;-77
2023/12/30 06:46:20;;;;;;;;;;;;;;;;;;6281775;28;20393;-77
2023/12/30 06:49:20;;;;;;;;;;;;;;;;;;6283526;28;20426;-77
2023/12/30 06:52:20;;;;;;;;;;;;;;;;;;6290342;28;20008;-77
2023/12/30 06:55:20;;;;;;;;;;;;;;;;;;6297431;28;20053;-77
2023/12/30 06:58:20;;;;;;;;;;;;;;;;;;6287977;28;19952;-76
2023/12/30 07:01:20;;;;;;;;;;;;;;;;;;6271247;28;20019;-76
2023/12/30 07:04:21;;;;;;;;;;;;;;;;;;6277888;28;20008;-76
2023/12/30 07:07:21;;;;;;;;;;;;;;;;;;6288634;28;19928;-76
2023/12/30 07:10:21;;;;;;;;;;;;;;;;;;6295383;28;20289;-76
2023/12/30 07:13:21;;;;;;;;;;;;;;;;;;6296692;28;20292;-76
2023/12/30 07:16:21;;;;;;;;;;;;;;;;;;6294002;28;20408;-76
2023/12/30 07:19:22;;;;;;;;;;;;;;;;;;6300165;28;19960;-77
2023/12/30 07:22:22;;;;;;;;;;;;;;;;;;6301733;28;20296;-75
2023/12/30 07:25:22;;;;;;;;;;;;;;;;;;6306776;28;20280;-75
2023/12/30 07:28:22;;;;;;;;;;;;;;;;;;6300268;28;20368;-76
2023/12/30 07:31:22;;;;;;;;;;;;;;;;;;6293457;28;19962;-76
2023/12/30 07:34:22;;;;;;;;;;;;;;;;;;6297463;28;19916;-76
2023/12/30 07:37:23;;;;;;;;;;;;;;;;;;6297973;28;19928;-76
2023/12/30 07:40:23;;;;;;;;;;;;;;;;;;6297252;28;20007;-76
2023/12/30 07:43:24;;;;;;;;;;;;;;;;;;6299895;28;19916;-76
2023/12/30 07:46:25;;;;;;;;;;;;;;;;;;6291079;28;19956;-76
2023/12/30 07:49:25;;;;;;;;;;;;;;;;;;6297397;28;19913;-76
2023/12/30 07:52:25;;;;;;;;;;;;;;;;;;6293578;28;19966;-76
2023/12/30 07:55:26;;;;;;;;;;;;;;;;;;6294103;28;19982;-76
2023/12/30 07:58:26;;;;;;;;;;;;;;;;;;6296258;28;19913;-77
2023/12/30 08:01:26;;;;;;;;;;;;;;;;;;6290668;28;19928;-76
2023/12/30 08:04:26;;;;;;;;;;;;;;;;;;6275600;28;19962;-76
2023/12/30 08:07:26;;;;;;;;;;;;;;;;;;6297220;28;19956;-76
2023/12/30 08:10:27;;;;;;;;;;;;;;;;;;6300284;28;19912;-77
2023/12/30 08:13:27;;;;;;;;;;;;;;;;;;6277930;28;19936;-78
2023/12/30 08:16:27;;;;;;;;;;;;;;;;;;6297735;28;19935;-79
2023/12/30 08:19:27;;;;;;;;;;;;;;;;;;6291160;28;19921;-79
2023/12/30 08:22:28;;;;;;;;;;;;;;;;;;6286453;28;20011;-78
2023/12/30 08:25:29;;;;;;;;;;;;;;;;;;6286891;28;20276;-78
2023/12/30 08:28:29;;;;;;;;;;;;;;;;;;6288243;28;19923;-78
2023/12/30 08:31:29;;;;;;;;;;;;;;;;;;6284413;28;20023;-78
2023/12/30 08:34:29;;;;;;;;;;;;;;;;;;6287193;28;20011;-78
2023/12/30 08:37:29;;;;;;;;;;;;;;;;;;6286811;28;19956;-77
2023/12/30 08:40:29;;;;;;;;;;;;;;;;;;6289008;28;19948;-79
2023/12/30 08:43:30;;;;;;;;;;;;;;;;;;6293266;28;19934;-79
2023/12/30 08:46:30;;;;;;;;;;;;;;;;;;6280375;28;19921;-78
2023/12/30 08:49:30;;;;;;;;;;;;;;;;;;6264773;28;19955;-78
2023/12/30 08:52:30;;;;;;;;;;;;;;;;;;6266749;28;19947;-79
2023/12/30 08:55:31;;;;;;;;;;;;;;;;;;6287173;28;19962;-79
2023/12/30 08:58:31;;;;;;;;;;;;;;;;;;6289140;28;20006;-80
2023/12/30 09:01:31;;;;;;;;;;;;;;;;;;6279729;28;19928;-80
2023/12/30 09:04:31;;;;;;;;;;;;;;;;;;6285026;28;19979;-78
2023/12/30 09:07:31;;;;;;;;;;;;;;;;;;6290933;28;20348;-79
2023/12/30 09:10:31;;;;;;;;;;;;;;;;;;6292207;28;19924;-82
2023/12/30 09:13:31;;;;;;;;;;;;;;;;;;6286882;28;20396;-80
2023/12/30 09:16:34;;;;;;;;;;;;;;;;;;6284654;28;19974;-82
2023/12/30 09:19:35;;;;;;;;;;;;;;;;;;6286638;28;19916;-81
2023/12/30 09:22:35;;;;;;;;;;;;;;;;;;6266050;28;19923;-81
2023/12/30 09:25:35;;;;;;;;;;;;;;;;;;6268602;28;19927;-81
2023/12/30 09:28:35;;;;;;;;;;;;;;;;;;6286738;28;19917;-80
2023/12/30 09:31:35;;;;;;;;;;;;;;;;;;6282902;28;19938;-81
2023/12/30 09:34:35;;;;;;;;;;;;;;;;;;6278471;28;19921;-80
2023/12/30 09:37:35;;;;;;;;;;;;;;;;;;6281632;28;19913;-78
2023/12/30 09:40:36;;;;;;;;;;;;;;;;;;6282697;28;19923;-79
2023/12/30 09:43:36;;;;;;;;;;;;;;;;;;6283558;28;19935;-79
2023/12/30 09:46:36;;;;;;;;;;;;;;;;;;6277919;28;19924;-79
2023/12/30 09:49:37;;;;;;;;;;;;;;;;;;6284392;28;19920;-78
2023/12/30 09:52:37;;;;;;;;;;;;;;;;;;6283911;28;19916;-78
2023/12/30 09:55:37;;;;;;;;;;;;;;;;;;6283702;28;20365;-79
2023/12/30 09:58:37;;;;;;;;;;;;;;;;;;6282168;28;19958;-78
2023/12/30 10:01:37;;;;;;;;;;;;;;;;;;6280826;28;19921;-77
2023/12/30 10:04:37;;;;;;;;;;;;;;;;;;6282727;28;19912;-77
2023/12/30 10:07:37;;;;;;;;;;;;;;;;;;6284809;28;19921;-77
2023/12/30 10:10:38;;;;;;;;;;;;;;;;;;6296372;28;19918;-77
2023/12/30 10:13:38;;;;;;;;;;;;;;;;;;6297396;28;19913;-77
2023/12/30 10:16:38;;;;;;;;;;;;;;;;;;6295027;28;19909;-77
2023/12/30 10:19:38;;;;;;;;;;;;;;;;;;6289692;28;20095;-77
2023/12/30 10:22:38;;;;;;;;;;;;;;;;;;6296168;28;19937;-77
2023/12/30 10:25:39;;;;;;;;;;;;;;;;;;6297052;28;19921;-77
2023/12/30 10:28:39;;;;;;;;;;;;;;;;;;6290451;28;20289;-77
2023/12/30 10:31:39;;;;;;;;;;;;;;;;;;6271972;28;19920;-77
2023/12/30 10:34:41;;;;;;;;;;;;;;;;;;6283575;28;20003;-77
2023/12/30 10:37:44;;;;;;;;;;;;;;;;;;6277075;28;19920;-77
2023/12/30 10:40:44;;;;;;;;;;;;;;;;;;6311150;28;19912;-77
2023/12/30 10:43:45;;;;;;;;;;;;;;;;;;6282202;28;19920;-77
2023/12/30 10:46:45;;;;;;;;;;;;;;;;;;6270727;28;20027;-77
2023/12/30 10:49:46;;;;;;;;;;;;;;;;;;6271765;28;20293;-77
2023/12/30 10:52:46;;;;;;;;;;;;;;;;;;6284530;28;19919;-77
2023/12/30 10:55:47;;;;;;;;;;;;;;;;;;6294952;28;19959;-77
2023/12/30 10:58:47;;;;;;;;;;;;;;;;;;6296745;28;19978;-77
2023/12/30 11:01:47;;;;;;;;;;;;;;;;;;6283353;28;19921;-77
2023/12/30 11:04:47;;;;;;;;;;;;;;;;;;6293309;28;19916;-77
2023/12/30 11:07:48;;;;;;;;;;;;;;;;;;6293341;28;19921;-77
2023/12/30 11:10:48;;;;;;;;;;;;;;;;;;6291286;28;19921;-77
2023/12/30 11:13:48;;;;;;;;;;;;;;;;;;6290107;28;19919;-77
2023/12/30 11:16:51;;;;;;;;;;;;;;;;;;6281285;28;19967;-77
2023/12/30 11:19:55;;;;;;;;;;;;;;;;;;6291120;28;19916;-77
2023/12/30 11:22:55;;;;;;;;;;;;;;;;;;6292465;28;20000;-77
2023/12/30 11:25:55;;;;;;;;;;;;;;;;;;6279894;28;19920;-77
2023/12/30 11:28:55;;;;;;;;;;;;;;;;;;6283680;28;19927;-77
2023/12/30 11:31:55;;;;;;;;;;;;;;;;;;6290152;28;19928;-77
2023/12/30 11:34:59;;;;;;;;;;;;;;;;;;6263112;28;19924;-77
2023/12/30 11:38:00;;;;;;;;;;;;;;;;;;6291309;28;19928;-77
2023/12/30 11:41:02;;;;;;;;;;;;;;;;;;6264747;28;19912;-77
2023/12/30 11:44:03;;;;;;;;;;;;;;;;;;6267398;28;19970;-77
2023/12/30 11:47:03;;;;;;;;;;;;;;;;;;6287339;28;19920;-77
2023/12/30 11:50:03;;;;;;;;;;;;;;;;;;6293918;28;19920;-77
2023/12/30 11:53:03;;;;;;;;;;;;;;;;;;6294465;28;19916;-77
2023/12/30 11:56:03;;;;;;;;;;;;;;;;;;6282666;28;19916;-77
2023/12/30 11:59:04;;;;;;;;;;;;;;;;;;6291074;28;19920;-77
2023/12/30 12:02:04;;;;;;;;;;;;;;;;;;6288108;28;19965;-77
2023/12/30 12:05:04;;;;;;;;;;;;;;;;;;6270329;28;19919;-77
2023/12/30 12:08:05;;;;;;;;;;;;;;;;;;6295667;28;19921;-77
2023/12/30 12:11:05;;;;;;;;;;;;;;;;;;6296029;28;19913;-77
2023/12/30 12:14:05;;;;;;;;;;;;;;;;;;6267558;28;20003;-77
2023/12/30 12:17:05;;;;;;;;;;;;;;;;;;6293500;28;19913;-77
2023/12/30 12:20:05;;;;;;;;;;;;;;;;;;6290200;28;19916;-77
2023/12/30 12:23:05;;;;;;;;;;;;;;;;;;6298131;28;20063;-76
2023/12/30 12:26:07;;;;;;;;;;;;;;;;;;6293100;28;19931;-77
2023/12/30 12:29:07;;;;;;;;;;;;;;;;;;6292757;28;19913;-77
2023/12/30 12:32:07;;;;;;;;;;;;;;;;;;6291722;28;20446;-77
2023/12/30 12:35:07;;;;;;;;;;;;;;;;;;6292080;28;19912;-78
2023/12/30 12:38:07;;;;;;;;;;;;;;;;;;6287052;28;19912;-78
2023/12/30 12:41:07;;;;;;;;;;;;;;;;;;6296589;28;19920;-77
2023/12/30 12:44:07;;;;;;;;;;;;;;;;;;6291740;28;19939;-76
2023/12/30 12:47:08;;;;;;;;;;;;;;;;;;6294988;28;19924;-77
2023/12/30 12:50:08;;;;;;;;;;;;;;;;;;6293433;28;19919;-77
2023/12/30 12:53:08;;;;;;;;;;;;;;;;;;6286283;28;20389;-77
2023/12/30 12:56:11;;;;;;;;;;;;;;;;;;6301144;28;19927;-76
2023/12/30 12:59:11;;;;;;;;;;;;;;;;;;6296331;28;19928;-76
2023/12/30 13:02:11;;;;;;;;;;;;;;;;;;6287643;28;19925;-77
2023/12/30 13:05:15;;;;;;;;;;;;;;;;;;6292873;28;19924;-77
2023/12/30 13:08:17;;;;;;;;;;;;;;;;;;6276262;28;19947;-76
2023/12/30 13:11:25;;;;;;;;;;;;;;;;;;6300413;28;20014;-77
2023/12/30 13:14:27;;;;;;;;;;;;;;;;;;6292723;28;19974;-77
2023/12/30 13:17:27;;;;;;;;;;;;;;;;;;6287171;28;19912;-77
2023/12/30 13:20:27;;;;;;;;;;;;;;;;;;6297006;28;19915;-77
2023/12/30 13:23:27;;;;;;;;;;;;;;;;;;6283219;28;19917;-76
2023/12/30 13:26:27;;;;;;;;;;;;;;;;;;6290438;28;20285;-77
2023/12/30 13:29:27;;;;;;;;;;;;;;;;;;6287746;28;19926;-77
2023/12/30 13:32:28;;;;;;;;;;;;;;;;;;6285626;28;19913;-77
2023/12/30 13:35:34;;;;;;;;;;;;;;;;;;6287008;28;19913;-77
2023/12/30 13:38:39;;;;;;;;;;;;;;;;;;6271895;28;19929;-77
2023/12/30 13:41:39;;;;;;;;;;;;;;;;;;6291766;28;19908;-77
2023/12/30 13:44:43;;;;;;;;;;;;;;;;;;6287044;28;19986;-79
2023/12/30 13:50:49;;;;;;;;;;;;;;;;;;6282713;28;19957;-77
2023/12/30 13:53:49;;;;;;;;;;;;;;;;;;6282827;28;19917;-77
2023/12/30 13:56:54;;;;;;;;;;;;;;;;;;6282312;28;19919;-77
2023/12/30 13:59:54;;;;;;;;;;;;;;;;;;6263783;28;19924;-77
2023/12/30 14:02:54;;;;;;;;;;;;;;;;;;6284216;28;20011;-80
2023/12/30 14:05:55;;;;;;;;;;;;;;;;;;6282629;28;19924;-77
2023/12/30 14:08:55;;;;;;;;;;;;;;;;;;6283428;28;19916;-76
2023/12/30 14:11:59;;;;;;;;;;;;;;;;;;6280655;28;19921;-77
2023/12/30 14:15:06;;;;;;;;;;;;;;;;;;6279257;28;20450;-76
2023/12/30 14:18:06;;;;;;;;;;;;;;;;;;6282998;28;19958;-76
2023/12/30 14:21:06;;;;;;;;;;;;;;;;;;6280769;28;19912;-77
2023/12/30 14:24:08;;;;;;;;;;;;;;;;;;6282173;28;19912;-77
2023/12/30 14:27:08;;;;;;;;;;;;;;;;;;6272658;28;19932;-76
2023/12/30 14:30:11;;;;;;;;;;;;;;;;;;6255926;28;19952;-77
2023/12/30 14:33:11;;;;;;;;;;;;;;;;;;6246185;28;19942;-76
2023/12/30 14:36:12;;;;;;;;;;;;;;;;;;6265744;28;20269;-77
2023/12/30 14:39:15;;;;;;;;;;;;;;;;;;6261726;28;20373;-76
2023/12/30 14:42:17;;;;;;;;;;;;;;;;;;6266618;28;20388;-76
2023/12/30 14:45:19;;;;;;;;;;;;;;;;;;6261766;28;19913;-75
2023/12/30 14:48:19;;;;;;;;;;;;;;;;;;6272716;28;19927;-76
2023/12/30 14:51:19;;;;;;;;;;;;;;;;;;6266729;28;19913;-76
2023/12/30 14:54:19;;;;;;;;;;;;;;;;;;6268685;28;20056;-77
2023/12/30 14:57:20;;;;;;;;;;;;;;;;;;6267137;28;19975;-77
2023/12/30 15:00:21;;;;;;;;;;;;;;;;;;6261990;28;19920;-77
2023/12/30 15:03:22;;;;;;;;;;;;;;;;;;6267685;28;20062;-76
2023/12/30 15:06:26;;;;;;;;;;;;;;;;;;6259574;28;20411;-77
2023/12/30 15:09:27;;;;;;;;;;;;;;;;;;6258245;28;19917;-77
2023/12/30 15:12:27;;;;;;;;;;;;;;;;;;6264450;28;19940;-77
2023/12/30 15:15:27;;;;;;;;;;;;;;;;;;6246258;28;19979;-76
2023/12/30 15:18:27;;;;;;;;;;;;;;;;;;6264026;28;19924;-77
2023/12/30 15:21:27;;;;;;;;;;;;;;;;;;6267977;28;19917;-77
2023/12/30 15:24:28;;;;;;;;;;;;;;;;;;6266250;28;19917;-77
2023/12/30 15:27:28;;;;;;;;;;;;;;;;;;5917564;28;9999870;-77
2023/12/30 15:30:28;;;;;;;;;;;;;;;;;;6255810;28;20365;-77
2023/12/30 15:33:30;;;;;;;;;;;;;;;;;;6275625;28;19913;-77
2023/12/30 15:36:30;;;;;;;;;;;;;;;;;;6265741;28;19999;-76
2023/12/30 15:39:30;;;;;;;;;;;;;;;;;;6267342;28;20413;-77
2023/12/30 15:42:30;;;;;;;;;;;;;;;;;;6267708;28;19940;-76
2023/12/30 15:45:30;;;;;;;;;;;;;;;;;;6247679;28;20007;-76
2023/12/30 15:48:30;;;;;;;;;;;;;;;;;;6264001;28;19913;-78
2023/12/30 15:51:31;;;;;;;;;;;;;;;;;;6263072;28;20016;-77
2023/12/30 15:54:31;;;;;;;;;;;;;;;;;;6264514;28;19921;-78
2023/12/30 15:57:31;;;;;;;;;;;;;;;;;;6270087;28;20019;-77
2023/12/30 16:00:32;;;;;;;;;;;;;;;;;;6259251;28;19916;-78
2023/12/30 16:03:33;;;;;;;;;;;;;;;;;;6246590;28;19929;-77
2023/12/30 16:06:34;;;;;;;;;;;;;;;;;;6246611;28;21517;-77
2023/12/30 16:09:34;;;;;;;;;;;;;;;;;;6233067;28;19921;-77
2023/12/30 16:12:34;;;;;;;;;;;;;;;;;;6245552;28;19917;-77
2023/12/30 16:15:34;;;;;;;;;;;;;;;;;;6230873;28;19932;-77
2023/12/30 16:18:35;;;;;;;;;;;;;;;;;;6249622;28;20401;-77
2023/12/30 16:21:35;;;;;;;;;;;;;;;;;;6249836;28;19953;-77
2023/12/30 16:24:35;;;;;;;;;;;;;;;;;;6261813;28;20180;-77
2023/12/30 16:27:35;;;;;;;;;;;;;;;;;;6260406;28;20227;-77
2023/12/30 16:30:36;;;;;;;;;;;;;;;;;;6260721;28;19917;-77
2023/12/30 16:33:40;;;;;;;;;;;;;;;;;;6267213;28;19919;-77
2023/12/30 16:36:40;;;;;;;;;;;;;;;;;;6267486;28;19917;-77
2023/12/30 16:39:40;;;;;;;;;;;;;;;;;;6264432;28;20005;-77
2023/12/30 16:42:41;;;;;;;;;;;;;;;;;;6257045;28;19920;-77
2023/12/30 16:45:42;;;;;;;;;;;;;;;;;;6253795;28;20186;-77
2023/12/30 16:48:42;;;;;;;;;;;;;;;;;;6260024;28;19928;-76
2023/12/30 16:51:54;;;;;;;;;;;;;;;;;;6246356;28;19917;-77
2023/12/30 16:55:10;;;;;;;;;;;;;;;;;;6261439;28;19971;-77
2023/12/30 16:58:16;;;;;;;;;;;;;;;;;;6264672;28;19917;-77
2023/12/30 17:07:46;;;;;;;;;;;;;;;;;;6281262;28;20692;-77
2023/12/30 17:10:48;;;;;;;;;;;;;;;;;;6283961;28;20035;-77
2023/12/30 17:13:48;;;;;;;;;;;;;;;;;;6284063;28;19913;-78
2023/12/30 17:16:48;;;;;;;;;;;;;;;;;;6290987;28;19917;-77
2023/12/30 17:19:57;;;;;;;;;;;;;;;;;;6297930;28;19920;-77
2023/12/30 17:23:03;;;;;;;;;;;;;;;;;;6289738;28;19912;-77
2023/12/30 17:26:12;;;;;;;;;;;;;;;;;;6281013;28;19921;-77
2023/12/30 17:29:13;;;;;;;;;;;;;;;;;;6291076;28;19921;-77
2023/12/30 17:32:13;;;;;;;;;;;;;;;;;;6276058;28;20376;-76
2023/12/30 17:35:13;;;;;;;;;;;;;;;;;;6281904;28;20086;-77
2023/12/30 17:38:13;;;;;;;;;;;;;;;;;;6308571;28;19957;-76
2023/12/30 17:41:14;;;;;;;;;;;;;;;;;;6291419;28;20338;-77
2023/12/30 17:44:14;;;;;;;;;;;;;;;;;;6312103;28;19912;-77
2023/12/30 17:47:14;;;;;;;;;;;;;;;;;;6293562;28;19917;-77
2023/12/30 17:50:14;;;;;;;;;;;;;;;;;;6279147;28;20016;-78
2023/12/30 17:53:15;;;;;;;;;;;;;;;;;;6269730;28;19963;-77
2023/12/30 17:56:15;;;;;;;;;;;;;;;;;;6279123;28;20388;-78
2023/12/30 17:59:15;;;;;;;;;;;;;;;;;;6278333;28;19917;-77
2023/12/30 18:02:18;;;;;;;;;;;;;;;;;;6289879;28;19955;-77
2023/12/30 18:05:18;;;;;;;;;;;;;;;;;;6295535;28;19912;-77
2023/12/30 18:08:18;;;;;;;;;;;;;;;;;;6289144;28;19920;-77
2023/12/30 18:11:18;;;;;;;;;;;;;;;;;;6293749;28;19913;-76
2023/12/30 18:14:21;;;;;;;;;;;;;;;;;;6288845;28;20332;-77
2023/12/30 18:17:22;;;;;;;;;;;;;;;;;;6287694;28;19919;-76
2023/12/30 18:20:22;;;;;;;;;;;;;;;;;;6295905;28;20335;-77
2023/12/30 18:23:22;;;;;;;;;;;;;;;;;;6295150;28;19921;-76
2023/12/30 18:26:22;;;;;;;;;;;;;;;;;;6289810;28;19931;-77
2023/12/30 18:29:22;;;;;;;;;;;;;;;;;;6302399;28;19917;-76
2023/12/30 18:32:22;;;;;;;;;;;;;;;;;;6300702;28;19916;-77
2023/12/30 18:35:23;;;;;;;;;;;;;;;;;;6286941;28;19921;-77
2023/12/30 18:38:27;;;;;;;;;;;;;;;;;;6290388;28;19908;-78
2023/12/30 18:41:27;;;;;;;;;;;;;;;;;;6269668;28;19924;-77
2023/12/30 18:44:27;;;;;;;;;;;;;;;;;;6283591;28;19913;-81
2023/12/30 18:47:27;;;;;;;;;;;;;;;;;;6285321;28;19920;-80
2023/12/30 18:50:27;;;;;;;;;;;;;;;;;;6296481;28;19991;-80
2023/12/30 18:53:27;;;;;;;;;;;;;;;;;;6299069;28;20335;-78
2023/12/30 18:56:29;;;;;;;;;;;;;;;;;;6287586;28;20323;-86
2023/12/30 18:59:29;;;;;;;;;;;;;;;;;;6295564;28;19917;-80
2023/12/30 19:02:29;;;;;;;;;;;;;;;;;;6293496;28;19912;-79
2023/12/30 19:05:29;;;;;;;;;;;;;;;;;;6289027;28;19912;-78
2023/12/30 19:08:31;;;;;;;;;;;;;;;;;;6290880;28;19924;-79
2023/12/30 19:11:31;;;;;;;;;;;;;;;;;;6274284;28;19916;-80
2023/12/30 19:14:32;;;;;;;;;;;;;;;;;;6297054;28;19917;-80
2023/12/30 19:17:32;;;;;;;;;;;;;;;;;;6287877;28;19944;-78
2023/12/30 19:20:32;;;;;;;;;;;;;;;;;;6296867;28;19943;-78
2023/12/30 19:23:34;;;;;;;;;;;;;;;;;;6295634;28;19921;-79
2023/12/30 19:26:36;;;;;;;;;;;;;;;;;;6291536;28;19921;-77
2023/12/30 19:29:36;;;;;;;;;;;;;;;;;;6286639;28;20381;-77
2023/12/30 19:32:36;;;;;;;;;;;;;;;;;;6293732;28;19951;-78
2023/12/30 19:35:36;;;;;;;;;;;;;;;;;;6269787;28;19920;-78
2023/12/30 19:38:37;;;;;;;;;;;;;;;;;;6293557;28;19913;-78
2023/12/30 19:41:37;;;;;;;;;;;;;;;;;;6295126;28;19966;-77
2023/12/30 19:44:37;;;;;;;;;;;;;;;;;;6272666;28;20007;-77
2023/12/30 19:47:38;;;;;;;;;;;;;;;;;;6287770;28;19916;-77
2023/12/30 19:50:42;;;;;;;;;;;;;;;;;;6290871;28;20002;-77
2023/12/30 19:53:42;;;;;;;;;;;;;;;;;;6289248;28;19928;-77
2023/12/30 19:56:43;;;;;;;;;;;;;;;;;;6287479;28;19959;-75
2023/12/30 19:59:43;;;;;;;;;;;;;;;;;;6287057;28;19956;-74
2023/12/30 20:02:43;;;;;;;;;;;;;;;;;;6298461;28;19955;-75
2023/12/30 20:05:43;;;;;;;;;;;;;;;;;;6293566;28;19913;-74
2023/12/30 20:08:44;;;;;;;;;;;;;;;;;;6291722;28;20388;-75
2023/12/30 20:11:44;;;;;;;;;;;;;;;;;;6294154;28;19913;-76
2023/12/30 20:14:45;;;;;;;;;;;;;;;;;;6282549;28;20380;-80
2023/12/30 20:17:45;;;;;;;;;;;;;;;;;;6281275;28;19942;-75
2023/12/30 20:20:45;;;;;;;;;;;;;;;;;;6282064;28;19917;-75
2023/12/30 20:23:45;;;;;;;;;;;;;;;;;;6285980;28;19916;-77
2023/12/30 20:26:46;;;;;;;;;;;;;;;;;;6277536;28;19928;-76
2023/12/30 20:29:48;;;;;;;;;;;;;;;;;;6282975;28;20404;-76
2023/12/30 20:32:48;;;;;;;;;;;;;;;;;;6294133;28;20301;-77
2023/12/30 20:35:48;;;;;;;;;;;;;;;;;;6279348;28;20392;-75
2023/12/30 20:38:48;;;;;;;;;;;;;;;;;;6294931;28;19908;-76
2023/12/30 20:41:48;;;;;;;;;;;;;;;;;;6299643;28;19920;-76